createdAt,value
2022-12-05T00:02:02.299Z,3.1
2022-12-05T00:07:01.325Z,1.4
2022-12-05T00:12:00.445Z,1.3
2022-12-05T00:16:59.614Z,2.7
2022-12-05T00:21:58.674Z,2.1
2022-12-05T00:26:57.824Z,2.6
2022-12-05T00:31:57.069Z,2.2
2022-12-05T00:36:56.103Z,1.4
2022-12-05T00:41:55.225Z,2.2
2022-12-05T00:46:54.372Z,2.5
2022-12-05T00:51:53.508Z,1.6
2022-12-05T00:56:52.637Z,1.8
2022-12-05T01:01:51.876Z,1.3
2022-12-05T01:06:50.913Z,2.2
2022-12-05T01:11:50.088Z,2.9
2022-12-05T01:16:49.179Z,2
2022-12-05T01:21:48.288Z,1.9
2022-12-05T01:26:47.428Z,0.7
2022-12-05T01:31:46.669Z,1.2
2022-12-05T01:36:45.748Z,2.2
2022-12-05T01:41:44.856Z,1.6
2022-12-05T01:46:44.043Z,2.3
2022-12-05T01:51:43.150Z,1.7
2022-12-05T01:56:42.331Z,1.8
2022-12-05T02:01:41.545Z,3
2022-12-05T02:06:40.572Z,1
2022-12-05T02:11:39.709Z,0.8
2022-12-05T02:16:38.932Z,2.2
2022-12-05T02:21:37.955Z,2
2022-12-05T02:26:37.073Z,2.1
2022-12-05T02:31:36.306Z,1.6
2022-12-05T02:36:35.357Z,2.4
2022-12-05T02:41:34.528Z,1.3
2022-12-05T02:46:33.646Z,1.7
2022-12-05T02:51:32.770Z,1
2022-12-05T02:56:31.884Z,1.3
2022-12-05T03:01:31.063Z,1.1
2022-12-05T03:06:30.136Z,1.5
2022-12-05T03:11:29.324Z,1.6
2022-12-05T03:16:28.452Z,1
2022-12-05T03:21:27.534Z,1.4
2022-12-05T03:26:26.662Z,1
2022-12-05T03:31:25.777Z,1.1
2022-12-05T03:36:24.806Z,1.2
2022-12-05T03:41:23.970Z,0.7
2022-12-05T03:46:23.161Z,1
2022-12-05T03:51:22.181Z,2.4
2022-12-05T03:56:21.289Z,2.2
2022-12-05T04:01:20.458Z,2.4
2022-12-05T04:06:19.576Z,1.3
2022-12-05T04:11:18.686Z,1.6
2022-12-05T04:16:17.980Z,1.2
2022-12-05T04:21:16.934Z,1.9
2022-12-05T04:26:16.104Z,2.2
2022-12-05T04:31:15.227Z,1.3
2022-12-05T04:36:14.301Z,2.2
2022-12-05T04:41:13.398Z,1.5
2022-12-05T04:46:12.543Z,1.2
2022-12-05T04:51:11.623Z,1.8
2022-12-05T04:56:10.745Z,1.6
2022-12-05T05:01:09.881Z,1.5
2022-12-05T05:06:08.914Z,1.6
2022-12-05T05:11:08.057Z,1.4
2022-12-05T05:16:07.173Z,1.6
2022-12-05T05:21:06.260Z,1.9
2022-12-05T05:26:05.366Z,1.4
2022-12-05T05:31:04.640Z,1.3
2022-12-05T05:36:03.602Z,1.2
2022-12-05T05:41:02.680Z,1.8
2022-12-05T05:46:01.829Z,1.5
2022-12-05T05:51:00.945Z,1.3
2022-12-05T05:56:00.057Z,3.9
2022-12-05T06:00:59.219Z,1.8
2022-12-05T06:05:58.290Z,2.5
2022-12-05T06:10:57.376Z,1.5
2022-12-05T06:15:56.509Z,1.3
2022-12-05T06:20:55.544Z,1.1
2022-12-05T06:25:54.642Z,2.1
2022-12-05T06:30:53.784Z,1.7
2022-12-05T06:35:52.993Z,1.8
2022-12-05T06:40:51.996Z,2.6
2022-12-05T06:45:51.205Z,2.5
2022-12-05T06:50:50.259Z,2.5
2022-12-05T06:55:49.445Z,1.6
2022-12-05T07:00:48.593Z,1.4
2022-12-05T07:05:47.630Z,1.5
2022-12-05T07:10:46.782Z,1.3
2022-12-05T07:15:45.921Z,1.2
2022-12-05T07:21:10.607Z,1
2022-12-05T07:25:44.222Z,1.6
2022-12-05T07:30:43.366Z,1.7
2022-12-05T07:35:42.493Z,1.7
2022-12-05T07:40:41.666Z,1.7
2022-12-05T07:45:40.832Z,1.3
2022-12-05T07:50:39.913Z,1
2022-12-05T07:55:39.124Z,1.3
2022-12-05T08:00:38.238Z,1.8
2022-12-05T08:05:37.435Z,1.9
2022-12-05T08:10:36.597Z,1.1
2022-12-05T08:15:35.743Z,1.6
2022-12-05T08:20:34.904Z,1.6
2022-12-05T08:25:34.078Z,2.2
2022-12-05T08:30:33.305Z,2.2
2022-12-05T08:35:32.433Z,2.1
2022-12-05T08:40:31.561Z,2.7
2022-12-05T08:45:30.650Z,2.4
2022-12-05T08:50:29.818Z,2.1
2022-12-05T08:55:29.003Z,1
2022-12-05T09:00:28.136Z,1.7
2022-12-05T09:05:29.278Z,1.6
2022-12-05T09:10:26.485Z,1.6
2022-12-05T09:15:25.688Z,1.3
2022-12-05T09:20:24.859Z,1
2022-12-05T09:25:23.989Z,1.8
2022-12-05T09:30:23.293Z,3.9
2022-12-05T09:35:22.393Z,3
2022-12-05T09:40:21.588Z,6.2
2022-12-05T09:45:20.704Z,1.8
2022-12-05T09:50:19.912Z,2.2
2022-12-05T09:55:19.117Z,3.2
2022-12-05T10:00:18.269Z,3
2022-12-05T10:05:17.509Z,2
2022-12-05T10:10:20.168Z,3.3
2022-12-05T10:15:15.882Z,4.7
2022-12-05T10:20:15.083Z,2
2022-12-05T10:25:14.276Z,2.4
2022-12-05T10:30:13.525Z,2.1
2022-12-05T10:35:12.723Z,1.9
2022-12-05T10:40:11.939Z,2.7
2022-12-05T10:45:11.116Z,2.8
2022-12-05T10:50:10.326Z,2.6
2022-12-05T10:55:09.556Z,2.7
2022-12-05T11:00:08.747Z,2.5
2022-12-05T11:05:08.003Z,3.3
2022-12-05T11:10:07.194Z,3.6
2022-12-05T11:15:06.429Z,13.3
2022-12-05T11:20:05.713Z,29.1
2022-12-05T11:25:04.914Z,19.8
2022-12-05T11:30:04.212Z,3.5
2022-12-05T11:35:03.441Z,7.4
2022-12-05T11:40:02.673Z,9.3
2022-12-05T11:45:02.042Z,2.4
2022-12-05T11:50:01.178Z,2.8
2022-12-05T11:55:15.537Z,6.2
2022-12-05T12:00:00.042Z,6.2
2022-12-05T12:04:59.279Z,5.9
2022-12-05T12:09:58.573Z,2.8
2022-12-05T12:14:57.841Z,6.4
2022-12-05T12:19:56.817Z,7.7
2022-12-05T12:24:56.349Z,4.4
2022-12-05T12:29:55.381Z,5.3
2022-12-05T12:34:54.623Z,5.9
2022-12-05T12:39:53.886Z,5.7
2022-12-05T12:44:53.154Z,6.3
2022-12-05T12:49:52.474Z,21.4
2022-12-05T12:55:03.293Z,34.4
2022-12-05T12:59:50.963Z,4.3
2022-12-05T13:04:50.275Z,12.9
2022-12-05T13:09:51.805Z,6.5
2022-12-05T13:14:48.855Z,6.7
2022-12-05T13:19:48.070Z,9.3
2022-12-05T13:24:47.335Z,6.9
2022-12-05T13:29:46.602Z,11.3
2022-12-05T13:34:45.873Z,3.4
2022-12-05T13:39:45.180Z,6.4
2022-12-05T13:44:44.461Z,3.6
2022-12-05T13:49:43.733Z,5.1
2022-12-05T13:54:43.072Z,8.5
2022-12-05T13:59:42.304Z,7.5
2022-12-05T14:04:41.593Z,3.8
2022-12-05T14:09:40.883Z,4.9
2022-12-05T14:14:40.151Z,5.2
2022-12-05T14:19:39.430Z,6
2022-12-05T14:24:38.682Z,7.5
2022-12-05T14:29:37.996Z,6.1
2022-12-05T14:34:37.283Z,6.2
2022-12-05T14:39:36.538Z,10.9
2022-12-05T14:44:35.790Z,11.4
2022-12-05T14:49:37.781Z,8.1
2022-12-05T14:54:34.382Z,16.4
2022-12-05T14:59:33.559Z,7.8
2022-12-05T15:04:32.863Z,5.3
2022-12-05T15:09:37.792Z,7.7
2022-12-05T15:14:31.561Z,8.4
2022-12-05T15:19:30.597Z,8
2022-12-05T15:24:29.811Z,7.1
2022-12-05T15:29:29.121Z,6
2022-12-05T15:34:28.322Z,4.3
2022-12-05T15:39:27.474Z,7.2
2022-12-05T15:44:27.708Z,4.8
2022-12-05T15:49:25.923Z,6.2
2022-12-05T15:54:29.060Z,5.9
2022-12-05T15:59:24.418Z,4.8
2022-12-05T16:04:29.184Z,6.9
2022-12-05T16:09:22.825Z,8.7
2022-12-05T16:14:51.235Z,6.9
2022-12-05T16:17:50.040Z,6.9
2022-12-05T16:19:21.293Z,5.9
2022-12-05T16:24:20.519Z,7.3
2022-12-05T16:29:19.738Z,7.2
2022-12-05T16:34:18.995Z,6.3
2022-12-05T16:39:19.785Z,7.7
2022-12-05T16:44:21.569Z,7.4
2022-12-05T16:49:16.642Z,6.2
2022-12-05T16:54:15.910Z,11.2
2022-12-05T16:59:15.048Z,4.4
2022-12-05T17:04:14.323Z,4.3
2022-12-05T17:09:13.496Z,12.1
2022-12-05T17:14:12.699Z,5.7
2022-12-05T17:19:11.947Z,3.9
2022-12-05T17:24:11.200Z,3.8
2022-12-05T17:29:10.364Z,13.4
2022-12-05T17:34:09.564Z,6.7
2022-12-05T17:39:08.779Z,11
2022-12-05T17:44:07.956Z,4.7
2022-12-05T17:49:07.285Z,3.4
2022-12-05T17:54:06.362Z,4.8
2022-12-05T17:59:07.361Z,5.8
2022-12-05T18:04:04.781Z,7.2
2022-12-05T18:09:03.969Z,6.7
2022-12-05T18:14:03.206Z,7.3
2022-12-05T18:19:02.397Z,5.9
2022-12-05T18:24:01.542Z,5.1
2022-12-05T18:29:00.731Z,8
2022-12-05T18:33:59.959Z,8.7
2022-12-05T18:38:59.179Z,7.5
2022-12-05T18:43:58.389Z,4.5
2022-12-05T18:49:01.775Z,4.6
2022-12-05T18:53:56.779Z,6.4
2022-12-05T18:58:55.947Z,3.5
2022-12-05T19:03:55.137Z,2.6
2022-12-05T19:08:54.331Z,3.3
2022-12-05T19:13:53.533Z,3.2
2022-12-05T19:18:52.722Z,4.2
2022-12-05T19:23:51.921Z,3.7
2022-12-05T19:28:51.102Z,4
2022-12-05T19:33:50.275Z,3.9
2022-12-05T19:38:49.482Z,3
2022-12-05T19:43:48.669Z,3.6
2022-12-05T19:48:47.807Z,2.9
2022-12-05T19:53:46.991Z,3.7
2022-12-05T19:58:46.130Z,2.9
2022-12-05T20:03:45.305Z,3.8
2022-12-05T20:08:44.469Z,3.9
2022-12-05T20:13:47.621Z,4.8
2022-12-05T20:18:42.783Z,4.7
2022-12-05T20:23:41.990Z,4.3
2022-12-05T20:28:41.112Z,6
2022-12-05T20:33:40.305Z,6
2022-12-05T20:38:39.511Z,3.3
2022-12-05T20:43:38.572Z,2.8
2022-12-05T20:48:37.752Z,2.9
2022-12-05T20:53:36.890Z,4.9
2022-12-05T20:58:36.075Z,4.7
2022-12-05T21:03:35.219Z,3.9
2022-12-05T21:08:34.354Z,3.8
2022-12-05T21:13:33.533Z,4.8
2022-12-05T21:18:32.675Z,4.4
2022-12-05T21:23:31.816Z,4
2022-12-05T21:28:30.960Z,5.4
2022-12-05T21:33:30.145Z,2.4
2022-12-05T21:38:29.302Z,4.9
2022-12-05T21:43:28.438Z,3
2022-12-05T21:48:27.572Z,3.1
2022-12-05T21:53:26.733Z,3.9
2022-12-05T21:58:25.956Z,3.7
2022-12-05T22:03:25.073Z,4.1
2022-12-05T22:08:24.234Z,3.5
2022-12-05T22:13:23.311Z,5.7
2022-12-05T22:18:22.450Z,6.4
2022-12-05T22:23:21.595Z,3.6
2022-12-05T22:28:20.734Z,2.5
2022-12-05T22:33:19.852Z,2.2
2022-12-05T22:38:18.999Z,2.5
2022-12-05T22:43:18.095Z,1.8
2022-12-05T22:48:17.242Z,2.6
2022-12-05T22:53:16.406Z,2.7
2022-12-05T22:58:15.439Z,2.5
2022-12-05T23:03:14.545Z,2.1
2022-12-05T23:08:13.640Z,2.9
2022-12-05T23:13:12.711Z,2.7
2022-12-05T23:18:11.801Z,2.1
2022-12-05T23:23:10.900Z,2.7
2022-12-05T23:28:10.009Z,3.4
2022-12-05T23:33:09.090Z,2.9
2022-12-05T23:38:08.202Z,3.1
2022-12-05T23:43:07.262Z,2.5
2022-12-05T23:48:06.362Z,2.1
2022-12-05T23:53:05.443Z,3
2022-12-05T23:58:04.563Z,2.4
